Terminal Aerodrome Forecast
Issued by NWS

Home | Current Version | Previous Version | Text Only | Print | Product List | Glossary Off
Versions: 1 2 3 4 5 6 7 8 9 10 11 12 13 14 15 16 17 18

000
FTUS43 KGRB 302330
TAFAUW
TAF
KAUW 302330Z 3100/3124 22009KT P6SM SKC
     FM310400 VRB03KT 5SM BR SKC
      TEMPO 3106/3110 2SM BR SCT003
     FM311000 00000KT 2SM BR SCT003
      TEMPO 3110/3114 1/2SM FG BKN003
     FM311400 21005KT P6SM BKN015
     FM311600 21009G15KT P6SM SCT020 SCT200=

USA.gov is the U.S. government's official web portal to all federal, state and local government web resources and services.